Time;durP1;ratioP1;P1;durP2;ratioP2;P2;SDS_P1;SDS_P2;PMS_P1;PMS_P2;Temp;Humidity;BMP_temperature;BMP_pressure;BME280_temperature;BME280_humidity;BME280_pressure;Samples;Min_cycle;Max_cycle;Signal;HPM_P1;HPM_P2
2022/11/25 00:09:30;;;;;;;6.90;4.20;;;;;;;3.14;100.00;97631.41;18349369;32;20493;-63
2022/11/25 00:19:33;;;;;;;8.70;4.90;;;;;;;3.16;100.00;97634.66;18347934;32;20053;-63
2022/11/25 00:29:35;;;;;;;7.23;4.70;;;;;;;3.19;100.00;97636.06;18362024;32;20117;-63
2022/11/25 00:39:38;;;;;;;7.03;4.50;;;;;;;3.23;100.00;97647.94;18361418;32;20062;-63
2022/11/25 00:49:44;;;;;;;6.63;4.10;;;;;;;3.26;100.00;97638.69;18360806;32;20462;-63
2022/11/25 00:59:47;;;;;;;5.50;2.90;;;;;;;3.28;100.00;97624.06;18360668;32;20160;-64
2022/11/25 01:09:50;;;;;;;3.60;2.47;;;;;;;3.32;100.00;97614.56;18360023;32;20474;-64
2022/11/25 01:19:52;;;;;;;4.07;2.40;;;;;;;3.33;100.00;97616.19;18359692;32;20076;-63
2022/11/25 01:29:55;;;;;;;4.10;3.27;;;;;;;3.35;100.00;97611.41;18358956;32;20404;-63
2022/11/25 01:39:57;;;;;;;3.33;2.50;;;;;;;3.41;100.00;97619.59;18358523;32;20153;-63
2022/11/25 01:50:04;;;;;;;5.07;3.10;;;;;;;3.43;100.00;97634.38;18358059;32;20441;-63
2022/11/25 02:00:09;;;;;;;5.50;3.07;;;;;;;3.50;100.00;97623.59;18358205;32;20109;-63
2022/11/25 02:10:20;;;;;;;4.20;3.00;;;;;;;3.59;100.00;97622.25;18357893;32;20072;-63
2022/11/25 02:20:23;;;;;;;4.93;2.90;;;;;;;3.69;100.00;97619.03;18357385;32;20101;-63
2022/11/25 02:30:26;;;;;;;5.27;2.90;;;;;;;3.65;100.00;97613.31;18356498;32;20369;-63
2022/11/25 02:40:29;;;;;;;6.37;2.70;;;;;;;3.67;100.00;97613.06;18361630;32;20057;-63
2022/11/25 02:50:31;;;;;;;4.50;2.77;;;;;;;3.66;100.00;97633.66;18366919;32;20050;-63
2022/11/25 03:00:34;;;;;;;4.47;3.20;;;;;;;3.63;100.00;97618.06;18352676;32;20062;-64
2022/11/25 03:10:37;;;;;;;3.47;2.63;;;;;;;3.60;100.00;97610.47;18366116;32;20061;-63
2022/11/25 03:20:39;;;;;;;5.73;3.37;;;;;;;3.55;100.00;97618.38;18365621;32;20089;-63
2022/11/25 03:30:42;;;;;;;8.43;3.07;;;;;;;3.46;100.00;97630.44;18350734;32;20061;-63
2022/11/25 03:40:46;;;;;;;4.73;3.07;;;;;;;3.55;100.00;97637.91;18351243;32;20054;-63
2022/11/25 03:50:49;;;;;;;3.37;2.80;;;;;;;3.59;100.00;97622.25;18363516;32;20054;-63
2022/11/25 04:00:51;;;;;;;5.27;3.20;;;;;;;3.65;100.00;97625.88;18363836;32;20058;-63
2022/11/25 04:10:54;;;;;;;4.70;3.13;;;;;;;3.62;100.00;97621.78;18349349;32;20054;-63
2022/11/25 04:20:57;;;;;;;5.53;2.77;;;;;;;3.35;100.00;97616.75;18362384;32;20451;-63
2022/11/25 04:30:59;;;;;;;5.97;2.57;;;;;;;3.18;100.00;97621.91;18335413;32;20099;-64
2022/11/25 04:41:02;;;;;;;3.53;2.67;;;;;;;3.20;100.00;97625.16;18348174;32;20045;-63
2022/11/25 04:51:04;;;;;;;5.17;3.50;;;;;;;3.25;100.00;97637.87;18360670;32;20094;-63
2022/11/25 05:01:07;;;;;;;4.20;2.80;;;;;;;3.34;100.00;97647.22;18360315;32;20072;-63
2022/11/25 05:11:09;;;;;;;5.50;3.03;;;;;;;3.39;100.00;97660.72;18359917;32;20061;-63
2022/11/25 05:21:12;;;;;;;5.43;2.80;;;;;;;3.37;100.00;97668.16;18359395;32;20357;-64
2022/11/25 05:31:14;;;;;;;4.67;2.80;;;;;;;3.44;100.00;97677.94;18359136;32;20089;-64
2022/11/25 05:41:17;;;;;;;4.27;2.60;;;;;;;3.57;100.00;97688.47;18358838;32;20162;-63
2022/11/25 05:51:20;;;;;;;4.77;3.00;;;;;;;3.66;100.00;97708.53;18358042;32;20053;-64
2022/11/25 06:01:23;;;;;;;3.93;2.93;;;;;;;3.73;100.00;97714.59;18357970;32;20098;-63
2022/11/25 06:11:26;;;;;;;3.80;2.60;;;;;;;3.80;100.00;97703.84;18344137;32;20050;-64
2022/11/25 06:21:28;;;;;;;3.33;2.70;;;;;;;3.84;100.00;97717.56;18354833;32;20089;-63
2022/11/25 06:31:31;;;;;;;4.07;2.57;;;;;;;3.92;100.00;97709.25;18354156;32;20444;-63
2022/11/25 06:41:34;;;;;;;4.27;2.63;;;;;;;4.00;100.00;97714.28;18367707;32;20434;-63
2022/11/25 06:51:36;;;;;;;6.43;3.80;;;;;;;4.05;100.00;97724.28;18367067;32;20475;-63
2022/11/25 07:01:39;;;;;;;3.73;2.60;;;;;;;4.09;100.00;97722.00;18366247;32;20445;-63
2022/11/25 07:11:42;;;;;;;5.37;3.13;;;;;;;4.16;100.00;97744.13;18352337;32;20053;-63
2022/11/25 07:21:45;;;;;;;5.00;3.37;;;;;;;4.28;100.00;97763.72;18365299;32;20433;-63
2022/11/25 07:31:48;;;;;;;4.60;3.07;;;;;;;4.39;100.00;97787.03;18364938;32;20076;-63
2022/11/25 07:41:52;;;;;;;4.50;2.90;;;;;;;4.48;100.00;97794.75;18364614;32;20042;-63
2022/11/25 07:51:58;;;;;;;4.93;3.47;;;;;;;4.57;100.00;97826.31;18363632;32;20049;-63
2022/11/25 08:02:01;;;;;;;6.43;3.63;;;;;;;4.67;100.00;97841.03;18363171;32;20057;-64
2022/11/25 08:12:04;;;;;;;7.13;4.67;;;;;;;4.82;100.00;97860.19;18337377;32;20116;-63
2022/11/25 08:22:07;;;;;;;6.90;3.57;;;;;;;5.00;100.00;97883.44;18347826;32;20099;-63
2022/11/25 08:32:10;;;;;;;6.27;4.40;;;;;;;5.17;100.00;97891.63;18348495;32;20101;-63
2022/11/25 08:42:13;;;;;;;7.90;5.47;;;;;;;5.32;100.00;97885.03;18346630;32;20386;-63
2022/11/25 08:52:15;;;;;;;5.97;3.90;;;;;;;5.38;100.00;97898.31;18360867;32;20108;-63
2022/11/25 09:02:18;;;;;;;6.53;4.00;;;;;;;5.52;100.00;97906.16;18360735;32;20433;-63
2022/11/25 09:12:23;;;;;;;4.07;3.43;;;;;;;5.67;100.00;97903.81;18360501;32;20062;-63
2022/11/25 09:22:26;;;;;;;8.57;5.37;;;;;;;5.88;100.00;97898.94;18359766;32;20441;-63
2022/11/25 09:32:29;;;;;;;8.03;5.57;;;;;;;6.08;100.00;97903.97;18359272;32;20125;-63
2022/11/25 09:53:53;;;;;;;5.47;3.93;;;;;;;6.26;100.00;97894.97;18356796;32;20098;-63
2022/11/25 10:04:12;;;;;;;5.23;3.83;;;;;;;6.62;100.00;97903.75;18358125;32;20437;-63
2022/11/25 10:14:40;;;;;;;7.67;4.77;;;;;;;7.12;100.00;97913.81;18344110;32;20062;-63
2022/11/25 10:24:43;;;;;;;9.63;5.53;;;;;;;7.31;100.00;97921.69;18343642;32;20133;-63
2022/11/25 10:34:57;;;;;;;11.80;7.83;;;;;;;7.64;100.00;97920.09;18356835;32;20094;-63
2022/11/25 10:45:01;;;;;;;9.60;6.97;;;;;;;8.01;100.00;97926.84;18356442;32;20058;-63
2022/11/25 10:55:13;;;;;;;9.37;6.97;;;;;;;8.44;100.00;97938.75;18341206;32;20109;-63
2022/11/25 11:05:28;;;;;;;11.03;6.80;;;;;;;8.50;100.00;97950.44;18364959;32;20485;-64
2022/11/25 11:15:48;;;;;;;8.05;6.00;;;;;;;8.17;100.00;97960.19;18365840;32;20057;-63
2022/11/25 11:26:04;;;;;;;10.27;6.40;;;;;;;7.87;100.00;97964.06;18365573;32;20076;-63
2022/11/25 11:36:44;;;;;;;8.07;5.40;;;;;;;7.75;100.00;97973.00;18351323;32;20069;-63
2022/11/25 11:46:59;;;;;;;5.83;4.20;;;;;;;7.67;100.00;97981.50;18348656;32;20373;-63
2022/11/25 11:57:35;;;;;;;5.13;3.53;;;;;;;7.69;100.00;97986.63;18363722;32;20086;-63
2022/11/25 12:08:05;;;;;;;5.50;3.80;;;;;;;8.15;100.00;98000.84;18364078;32;20101;-63
2022/11/25 12:18:32;;;;;;;6.77;3.60;;;;;;;8.44;100.00;97998.84;18363095;32;20114;-63
2022/11/25 12:28:42;;;;;;;8.23;4.37;;;;;;;8.63;100.00;98006.69;18362390;32;20058;-63
2022/11/25 12:39:01;;;;;;;4.80;2.87;;;;;;;8.97;100.00;98007.38;18361951;32;20080;-63
2022/11/25 12:49:12;;;;;;;4.57;1.63;;;;;;;9.31;100.00;98018.03;18361493;32;20065;-64
2022/11/25 12:59:40;;;;;;;5.20;1.73;;;;;;;9.37;100.00;98043.19;18361200;32;20081;-63
2022/11/25 13:10:01;;;;;;;5.03;1.40;;;;;;;9.53;100.00;98046.06;18360378;32;20053;-63
2022/11/25 13:20:26;;;;;;;3.57;1.40;;;;;;;9.45;100.00;98055.44;18359476;32;20073;-63
2022/11/25 13:30:31;;;;;;;5.70;1.33;;;;;;;9.66;100.00;98067.25;18344551;32;20050;-63
2022/11/25 13:40:38;;;;;;;8.00;1.73;;;;;;;9.82;100.00;98071.72;18358814;32;20369;-63
2022/11/25 13:50:41;;;;;;;6.90;1.73;;;;;;;9.76;100.00;98091.66;18332159;32;20389;-63
2022/11/25 14:01:23;;;;;;;4.60;1.47;;;;;;;9.57;100.00;98107.38;18346953;32;20050;-63
2022/11/25 14:11:47;;;;;;;2.80;1.10;;;;;;;9.24;100.00;98103.75;18357829;32;20072;-63
2022/11/25 14:22:11;;;;;;;2.87;1.00;;;;;;;8.95;100.00;98108.50;18357414;32;20350;-63
2022/11/25 14:32:38;;;;;;;6.53;1.20;;;;;;;8.58;100.00;98122.53;18357957;32;20437;-63
2022/11/25 14:42:45;;;;;;;4.00;1.10;;;;;;;8.30;100.00;98132.28;18367846;32;20410;-63
2022/11/25 14:52:49;;;;;;;3.03;1.13;;;;;;;8.16;100.00;98147.13;18353241;32;20120;-63
2022/11/25 15:02:57;;;;;;;4.00;1.17;;;;;;;7.92;100.00;98174.16;18366872;32;20105;-63
2022/11/25 15:13:12;;;;;;;2.37;1.00;;;;;;;7.69;100.00;98173.19;18309952;32;20066;-63
2022/11/25 15:23:22;;;;;;;2.93;0.90;;;;;;;7.56;100.00;98166.19;18288035;32;20118;-63
2022/11/25 15:33:27;;;;;;;1.60;0.83;;;;;;;7.29;100.00;98184.75;18287598;32;20471;-63
2022/11/25 15:43:44;;;;;;;2.27;1.40;;;;;;;7.11;100.00;98191.88;18301032;32;20354;-63
2022/11/25 15:53:53;;;;;;;3.17;1.10;;;;;;;7.13;100.00;98203.22;18286579;32;20050;-63
2022/11/25 16:04:28;;;;;;;3.40;0.90;;;;;;;7.17;100.00;98216.19;18300270;32;20062;-63
2022/11/25 16:14:35;;;;;;;3.23;1.33;;;;;;;7.20;100.00;98224.63;17967451;33;20125;-63
2022/11/25 16:24:39;;;;;;;5.20;2.00;;;;;;;7.18;100.00;98229.41;17978912;32;20076;-63
2022/11/25 16:34:44;;;;;;;2.93;1.00;;;;;;;7.12;100.00;98241.91;17966109;33;20113;-63
2022/11/25 16:44:50;;;;;;;5.33;1.60;;;;;;;6.88;100.00;98261.75;18076955;32;20042;-63
2022/11/25 16:54:53;;;;;;;3.67;1.97;;;;;;;6.55;100.00;98284.59;18296701;32;20084;-63
2022/11/25 17:04:58;;;;;;;5.70;1.70;;;;;;;6.40;100.00;98291.19;18297057;32;20043;-63
2022/11/25 17:15:04;;;;;;;3.67;1.40;;;;;;;6.43;100.00;98309.53;18296488;32;20062;-63
2022/11/25 17:25:10;;;;;;;3.83;1.40;;;;;;;6.54;100.00;98320.56;18296231;32;20046;-63
2022/11/25 17:35:19;;;;;;;3.13;1.37;;;;;;;6.68;100.00;98335.44;18295610;32;20061;-63
2022/11/25 17:45:22;;;;;;;3.57;1.90;;;;;;;6.78;100.00;98338.44;18295591;32;20046;-63
2022/11/25 17:55:26;;;;;;;5.60;1.53;;;;;;;6.89;100.00;98346.75;18294275;32;20445;-63
2022/11/25 18:05:28;;;;;;;6.77;1.80;;;;;;;6.96;100.00;98371.66;18295097;32;20063;-63
2022/11/25 18:15:33;;;;;;;9.80;1.77;;;;;;;7.04;100.00;98392.03;18291213;32;20102;-63
2022/11/25 18:25:38;;;;;;;4.10;1.40;;;;;;;7.09;100.00;98403.75;18305132;32;20066;-63
2022/11/25 18:35:42;;;;;;;3.23;1.60;;;;;;;7.16;100.00;98418.97;18304469;32;20046;-63
2022/11/25 18:45:45;;;;;;;5.00;1.63;;;;;;;7.21;100.00;98444.13;18304060;32;20074;-63
2022/11/25 18:55:49;;;;;;;4.57;1.77;;;;;;;7.17;100.00;98459.09;18302993;32;20073;-63
2022/11/25 19:05:58;;;;;;;5.07;1.60;;;;;;;7.11;100.00;98478.81;18303124;32;20049;-63
2022/11/25 19:16:12;;;;;;;3.57;1.43;;;;;;;7.11;100.00;98498.47;18303039;32;20102;-63
2022/11/25 19:26:20;;;;;;;5.90;1.70;;;;;;;7.06;100.00;98516.34;18301622;32;20054;-63
2022/11/25 19:36:26;;;;;;;3.97;1.37;;;;;;;7.01;100.00;98532.31;18301606;32;20138;-63
2022/11/25 19:46:31;;;;;;;3.00;1.10;;;;;;;6.97;100.00;98560.72;18300949;32;20058;-63
2022/11/25 19:56:54;;;;;;;8.50;5.37;;;;;;;6.86;100.00;98567.66;18286382;32;20446;-63
2022/11/25 20:06:57;;;;;;;6.50;2.43;;;;;;;6.56;100.00;98576.44;18300138;32;20054;-63
2022/11/25 20:17:00;;;;;;;6.37;2.27;;;;;;;6.20;100.00;98586.06;18285616;32;20508;-63
2022/11/25 20:27:03;;;;;;;4.63;2.60;;;;;;;5.89;100.00;98587.69;18284966;32;20065;-63
2022/11/25 20:37:08;;;;;;;6.80;2.27;;;;;;;5.63;100.00;98597.53;18283470;32;20058;-62
2022/11/25 20:47:13;;;;;;;8.48;3.30;;;;;;;5.32;100.00;98609.88;18297847;32;20511;-63
2022/11/25 20:57:16;;;;;;;11.23;6.03;;;;;;;5.17;100.00;98633.44;18297356;32;20086;-63
2022/11/25 21:07:19;;;;;;;4.47;1.73;;;;;;;4.94;100.00;98660.72;18296943;32;20403;-63
2022/11/25 21:17:22;;;;;;;3.63;1.80;;;;;;;4.60;100.00;98674.13;18296371;32;20070;-63
2022/11/25 21:27:25;;;;;;;5.47;2.73;;;;;;;4.39;100.00;98670.62;18296253;32;20050;-63
2022/11/25 21:37:31;;;;;;;7.87;4.80;;;;;;;4.21;100.00;98684.63;18295434;32;20106;-63
2022/11/25 21:47:34;;;;;;;7.13;4.77;;;;;;;4.01;100.00;98679.22;18294967;32;20081;-63
2022/11/25 21:57:37;;;;;;;9.33;5.20;;;;;;;3.75;100.00;98681.84;18294402;32;20054;-63
2022/11/25 22:07:40;;;;;;;13.83;5.57;;;;;;;3.57;100.00;98696.56;18294591;32;20113;-63
2022/11/25 22:17:44;;;;;;;19.17;8.90;;;;;;;3.41;100.00;98678.19;18293960;32;20092;-63
2022/11/25 22:27:48;;;;;;;11.27;5.63;;;;;;;3.31;100.00;98694.59;18293875;32;20076;-63
2022/11/25 22:37:50;;;;;;;7.93;4.07;;;;;;;3.14;100.00;98705.63;18293265;32;20129;-63
2022/11/25 22:47:57;;;;;;;4.77;2.33;;;;;;;3.03;100.00;98720.34;18293027;32;20130;-63
2022/11/25 22:58:00;;;;;;;4.80;1.87;;;;;;;2.93;100.00;98743.87;18298072;32;20109;-63
2022/11/25 23:08:20;;;;;;;4.97;2.80;;;;;;;3.04;100.00;98746.06;18289210;32;20054;-63
2022/11/25 23:18:38;;;;;;;7.93;3.60;;;;;;;3.11;100.00;98732.75;18302614;32;20468;-63
2022/11/25 23:28:41;;;;;;;8.77;5.00;;;;;;;3.08;100.00;98741.13;18301928;32;20117;-63
2022/11/25 23:38:48;;;;;;;12.37;6.03;;;;;;;2.91;100.00;98742.47;18301306;32;20061;-63
2022/11/25 23:49:00;;;;;;;11.37;4.77;;;;;;;2.66;100.00;98746.38;18300943;32;20311;-63
2022/11/25 23:59:02;;;;;;;9.07;5.13;;;;;;;2.59;100.00;98744.63;18300042;32;20043;-64
